sensor_id;sensor_type;location;lat;lon;timestamp;P1;durP1;ratioP1;P2;durP2;ratioP2
27505;SDS011;14939;43.596;1.320;2022-09-17T00:01:04;6.35;;;2.17;;
27505;SDS011;14939;43.596;1.320;2022-09-17T00:03:31;4.10;;;2.08;;
27505;SDS011;14939;43.596;1.320;2022-09-17T00:06:01;4.72;;;2.00;;
27505;SDS011;14939;43.596;1.320;2022-09-17T00:08:28;6.22;;;2.35;;
27505;SDS011;14939;43.596;1.320;2022-09-17T00:10:55;6.10;;;2.10;;
27505;SDS011;14939;43.596;1.320;2022-09-17T00:13:20;6.82;;;2.30;;
27505;SDS011;14939;43.596;1.320;2022-09-17T00:15:46;4.30;;;2.13;;
27505;SDS011;14939;43.596;1.320;2022-09-17T00:18:12;5.20;;;2.00;;
27505;SDS011;14939;43.596;1.320;2022-09-17T00:20:42;6.07;;;1.70;;
27505;SDS011;14939;43.596;1.320;2022-09-17T00:23:11;4.78;;;2.13;;
27505;SDS011;14939;43.596;1.320;2022-09-17T00:25:40;3.78;;;2.15;;
27505;SDS011;14939;43.596;1.320;2022-09-17T00:28:07;3.85;;;2.10;;
27505;SDS011;14939;43.596;1.320;2022-09-17T00:30:33;5.15;;;2.10;;
27505;SDS011;14939;43.596;1.320;2022-09-17T00:32:59;7.40;;;2.25;;
27505;SDS011;14939;43.596;1.320;2022-09-17T00:35:25;6.05;;;2.22;;
27505;SDS011;14939;43.596;1.320;2022-09-17T00:37:52;4.78;;;2.00;;
27505;SDS011;14939;43.596;1.320;2022-09-17T00:40:18;3.78;;;1.90;;
27505;SDS011;14939;43.596;1.320;2022-09-17T00:42:45;5.70;;;2.03;;
27505;SDS011;14939;43.596;1.320;2022-09-17T00:45:11;4.13;;;1.95;;
27505;SDS011;14939;43.596;1.320;2022-09-17T00:47:58;4.68;;;2.30;;
27505;SDS011;14939;43.596;1.320;2022-09-17T00:52:58;10.67;;;2.80;;
27505;SDS011;14939;43.596;1.320;2022-09-17T00:57:58;10.85;;;2.80;;
27505;SDS011;14939;43.596;1.320;2022-09-17T01:00:26;9.75;;;3.00;;
27505;SDS011;14939;43.596;1.320;2022-09-17T01:02:53;8.48;;;2.97;;
27505;SDS011;14939;43.596;1.320;2022-09-17T01:05:26;10.10;;;2.95;;
27505;SDS011;14939;43.596;1.320;2022-09-17T01:08:04;10.75;;;2.50;;
27505;SDS011;14939;43.596;1.320;2022-09-17T01:16:53;8.27;;;2.10;;
27505;SDS011;14939;43.596;1.320;2022-09-17T01:21:55;6.55;;;2.10;;
27505;SDS011;14939;43.596;1.320;2022-09-17T01:33:05;5.93;;;2.30;;
27505;SDS011;14939;43.596;1.320;2022-09-17T01:40:56;4.85;;;2.42;;
27505;SDS011;14939;43.596;1.320;2022-09-17T01:43:33;5.35;;;2.30;;
27505;SDS011;14939;43.596;1.320;2022-09-17T01:46:11;6.82;;;2.40;;
27505;SDS011;14939;43.596;1.320;2022-09-17T01:48:43;10.68;;;2.75;;
27505;SDS011;14939;43.596;1.320;2022-09-17T01:51:16;5.90;;;2.30;;
27505;SDS011;14939;43.596;1.320;2022-09-17T01:53:51;9.50;;;2.55;;
27505;SDS011;14939;43.596;1.320;2022-09-17T01:56:58;4.85;;;2.33;;
27505;SDS011;14939;43.596;1.320;2022-09-17T01:59:32;7.80;;;2.22;;
27505;SDS011;14939;43.596;1.320;2022-09-17T02:04:43;6.28;;;2.70;;
27505;SDS011;14939;43.596;1.320;2022-09-17T02:07:18;7.30;;;2.45;;
27505;SDS011;14939;43.596;1.320;2022-09-17T02:09:49;5.95;;;2.38;;
27505;SDS011;14939;43.596;1.320;2022-09-17T02:12:23;5.28;;;2.83;;
27505;SDS011;14939;43.596;1.320;2022-09-17T02:14:54;9.20;;;2.90;;
27505;SDS011;14939;43.596;1.320;2022-09-17T02:19:51;4.32;;;2.80;;
27505;SDS011;14939;43.596;1.320;2022-09-17T02:22:27;7.88;;;3.17;;
27505;SDS011;14939;43.596;1.320;2022-09-17T02:25:21;8.38;;;2.90;;
27505;SDS011;14939;43.596;1.320;2022-09-17T02:28:07;9.33;;;2.97;;
27505;SDS011;14939;43.596;1.320;2022-09-17T02:30:37;10.57;;;2.92;;
27505;SDS011;14939;43.596;1.320;2022-09-17T02:33:04;8.35;;;3.10;;
27505;SDS011;14939;43.596;1.320;2022-09-17T02:35:33;6.50;;;2.88;;
27505;SDS011;14939;43.596;1.320;2022-09-17T02:38:00;8.32;;;3.13;;
27505;SDS011;14939;43.596;1.320;2022-09-17T02:40:26;6.68;;;3.10;;
27505;SDS011;14939;43.596;1.320;2022-09-17T02:50:56;6.55;;;2.70;;
27505;SDS011;14939;43.596;1.320;2022-09-17T02:57:04;8.27;;;3.00;;
27505;SDS011;14939;43.596;1.320;2022-09-17T03:02:24;5.43;;;2.67;;
27505;SDS011;14939;43.596;1.320;2022-09-17T03:04:55;7.50;;;3.30;;
27505;SDS011;14939;43.596;1.320;2022-09-17T03:07:21;9.15;;;3.25;;
27505;SDS011;14939;43.596;1.320;2022-09-17T03:09:48;8.90;;;2.83;;
27505;SDS011;14939;43.596;1.320;2022-09-17T03:12:14;7.78;;;2.88;;
27505;SDS011;14939;43.596;1.320;2022-09-17T03:14:40;4.32;;;2.70;;
27505;SDS011;14939;43.596;1.320;2022-09-17T03:17:06;5.85;;;2.60;;
27505;SDS011;14939;43.596;1.320;2022-09-17T03:19:32;7.43;;;2.78;;
27505;SDS011;14939;43.596;1.320;2022-09-17T03:21:57;7.05;;;2.85;;
27505;SDS011;14939;43.596;1.320;2022-09-17T03:24:23;6.43;;;2.60;;
27505;SDS011;14939;43.596;1.320;2022-09-17T03:26:49;7.07;;;2.47;;
27505;SDS011;14939;43.596;1.320;2022-09-17T03:29:15;6.32;;;2.33;;
27505;SDS011;14939;43.596;1.320;2022-09-17T03:31:41;5.85;;;2.50;;
27505;SDS011;14939;43.596;1.320;2022-09-17T03:34:07;5.00;;;2.40;;
27505;SDS011;14939;43.596;1.320;2022-09-17T03:36:33;5.75;;;2.53;;
27505;SDS011;14939;43.596;1.320;2022-09-17T03:38:58;7.95;;;2.95;;
27505;SDS011;14939;43.596;1.320;2022-09-17T03:41:24;6.75;;;2.83;;
27505;SDS011;14939;43.596;1.320;2022-09-17T03:43:50;6.18;;;2.70;;
27505;SDS011;14939;43.596;1.320;2022-09-17T03:46:17;7.72;;;2.60;;
27505;SDS011;14939;43.596;1.320;2022-09-17T03:48:43;5.40;;;2.90;;
27505;SDS011;14939;43.596;1.320;2022-09-17T03:51:10;6.00;;;2.88;;
27505;SDS011;14939;43.596;1.320;2022-09-17T03:53:36;6.72;;;2.47;;
27505;SDS011;14939;43.596;1.320;2022-09-17T03:56:03;5.65;;;2.60;;
27505;SDS011;14939;43.596;1.320;2022-09-17T03:58:30;6.13;;;2.65;;
27505;SDS011;14939;43.596;1.320;2022-09-17T04:00:57;5.55;;;2.50;;
27505;SDS011;14939;43.596;1.320;2022-09-17T04:03:24;10.45;;;2.92;;
27505;SDS011;14939;43.596;1.320;2022-09-17T04:05:51;4.85;;;2.50;;
27505;SDS011;14939;43.596;1.320;2022-09-17T04:08:16;7.25;;;3.10;;
27505;SDS011;14939;43.596;1.320;2022-09-17T04:10:42;7.75;;;2.72;;
27505;SDS011;14939;43.596;1.320;2022-09-17T04:13:08;7.43;;;3.15;;
27505;SDS011;14939;43.596;1.320;2022-09-17T04:15:34;6.18;;;2.70;;
27505;SDS011;14939;43.596;1.320;2022-09-17T04:18:00;8.68;;;2.92;;
27505;SDS011;14939;43.596;1.320;2022-09-17T04:20:26;8.35;;;2.72;;
27505;SDS011;14939;43.596;1.320;2022-09-17T04:22:52;10.98;;;2.63;;
27505;SDS011;14939;43.596;1.320;2022-09-17T04:25:18;8.48;;;2.65;;
27505;SDS011;14939;43.596;1.320;2022-09-17T04:27:44;9.77;;;3.08;;
27505;SDS011;14939;43.596;1.320;2022-09-17T04:30:11;6.82;;;2.72;;
27505;SDS011;14939;43.596;1.320;2022-09-17T04:32:38;6.65;;;2.90;;
27505;SDS011;14939;43.596;1.320;2022-09-17T04:35:04;7.80;;;2.50;;
27505;SDS011;14939;43.596;1.320;2022-09-17T04:37:30;10.15;;;2.95;;
27505;SDS011;14939;43.596;1.320;2022-09-17T04:39:56;6.47;;;2.53;;
27505;SDS011;14939;43.596;1.320;2022-09-17T04:42:22;10.27;;;3.38;;
27505;SDS011;14939;43.596;1.320;2022-09-17T04:44:47;8.73;;;2.90;;
27505;SDS011;14939;43.596;1.320;2022-09-17T04:47:13;6.45;;;2.88;;
27505;SDS011;14939;43.596;1.320;2022-09-17T04:49:39;6.07;;;2.58;;
27505;SDS011;14939;43.596;1.320;2022-09-17T04:52:04;8.45;;;2.65;;
27505;SDS011;14939;43.596;1.320;2022-09-17T04:54:30;10.93;;;2.92;;
27505;SDS011;14939;43.596;1.320;2022-09-17T04:56:56;6.38;;;2.70;;
27505;SDS011;14939;43.596;1.320;2022-09-17T04:59:23;11.32;;;3.00;;
27505;SDS011;14939;43.596;1.320;2022-09-17T05:01:49;8.02;;;2.90;;
27505;SDS011;14939;43.596;1.320;2022-09-17T05:04:15;11.00;;;3.15;;
27505;SDS011;14939;43.596;1.320;2022-09-17T05:06:40;11.07;;;3.17;;
27505;SDS011;14939;43.596;1.320;2022-09-17T05:09:06;12.00;;;3.03;;
27505;SDS011;14939;43.596;1.320;2022-09-17T05:11:32;9.13;;;3.05;;
27505;SDS011;14939;43.596;1.320;2022-09-17T05:13:59;12.82;;;2.97;;
27505;SDS011;14939;43.596;1.320;2022-09-17T05:16:25;9.73;;;3.30;;
27505;SDS011;14939;43.596;1.320;2022-09-17T05:18:51;13.50;;;3.05;;
27505;SDS011;14939;43.596;1.320;2022-09-17T05:21:17;7.10;;;2.88;;
27505;SDS011;14939;43.596;1.320;2022-09-17T05:23:43;9.00;;;2.58;;
27505;SDS011;14939;43.596;1.320;2022-09-17T05:26:09;6.45;;;2.90;;
27505;SDS011;14939;43.596;1.320;2022-09-17T05:28:34;8.23;;;2.70;;
27505;SDS011;14939;43.596;1.320;2022-09-17T05:31:00;6.90;;;2.67;;
27505;SDS011;14939;43.596;1.320;2022-09-17T05:33:26;5.22;;;2.30;;
27505;SDS011;14939;43.596;1.320;2022-09-17T05:35:53;8.38;;;2.53;;
27505;SDS011;14939;43.596;1.320;2022-09-17T05:38:18;5.85;;;2.38;;
27505;SDS011;14939;43.596;1.320;2022-09-17T05:40:44;5.40;;;2.58;;
27505;SDS011;14939;43.596;1.320;2022-09-17T05:43:10;9.70;;;2.58;;
27505;SDS011;14939;43.596;1.320;2022-09-17T05:45:36;7.05;;;2.45;;
27505;SDS011;14939;43.596;1.320;2022-09-17T05:48:03;5.13;;;2.33;;
27505;SDS011;14939;43.596;1.320;2022-09-17T05:50:30;6.25;;;2.30;;
27505;SDS011;14939;43.596;1.320;2022-09-17T05:52:56;6.35;;;2.28;;
27505;SDS011;14939;43.596;1.320;2022-09-17T05:55:27;6.80;;;2.60;;
27505;SDS011;14939;43.596;1.320;2022-09-17T05:57:52;5.75;;;2.42;;
27505;SDS011;14939;43.596;1.320;2022-09-17T06:00:18;5.75;;;2.60;;
27505;SDS011;14939;43.596;1.320;2022-09-17T06:02:44;7.22;;;2.47;;
27505;SDS011;14939;43.596;1.320;2022-09-17T06:05:10;6.03;;;2.50;;
27505;SDS011;14939;43.596;1.320;2022-09-17T06:07:36;8.50;;;2.63;;
27505;SDS011;14939;43.596;1.320;2022-09-17T06:10:03;5.30;;;2.10;;
27505;SDS011;14939;43.596;1.320;2022-09-17T06:12:30;7.10;;;2.90;;
27505;SDS011;14939;43.596;1.320;2022-09-17T06:14:56;5.95;;;2.55;;
27505;SDS011;14939;43.596;1.320;2022-09-17T06:17:21;7.65;;;2.65;;
27505;SDS011;14939;43.596;1.320;2022-09-17T06:19:47;4.13;;;2.28;;
27505;SDS011;14939;43.596;1.320;2022-09-17T06:22:13;6.13;;;2.53;;
27505;SDS011;14939;43.596;1.320;2022-09-17T06:24:38;5.45;;;2.30;;
27505;SDS011;14939;43.596;1.320;2022-09-17T06:27:04;7.97;;;2.30;;
27505;SDS011;14939;43.596;1.320;2022-09-17T06:29:30;5.32;;;2.30;;
27505;SDS011;14939;43.596;1.320;2022-09-17T06:31:55;4.70;;;2.30;;
27505;SDS011;14939;43.596;1.320;2022-09-17T06:34:21;5.68;;;2.33;;
27505;SDS011;14939;43.596;1.320;2022-09-17T06:36:50;6.22;;;2.65;;
27505;SDS011;14939;43.596;1.320;2022-09-17T06:39:15;7.53;;;2.60;;
27505;SDS011;14939;43.596;1.320;2022-09-17T06:41:41;6.78;;;2.30;;
27505;SDS011;14939;43.596;1.320;2022-09-17T06:44:07;7.63;;;3.08;;
27505;SDS011;14939;43.596;1.320;2022-09-17T06:46:33;6.05;;;2.55;;
27505;SDS011;14939;43.596;1.320;2022-09-17T06:48:59;6.90;;;2.20;;
27505;SDS011;14939;43.596;1.320;2022-09-17T06:51:24;6.25;;;2.58;;
27505;SDS011;14939;43.596;1.320;2022-09-17T06:53:50;8.50;;;2.50;;
27505;SDS011;14939;43.596;1.320;2022-09-17T06:56:16;8.65;;;2.30;;
27505;SDS011;14939;43.596;1.320;2022-09-17T06:58:41;5.85;;;2.38;;
27505;SDS011;14939;43.596;1.320;2022-09-17T07:01:08;4.93;;;2.20;;
27505;SDS011;14939;43.596;1.320;2022-09-17T07:03:37;5.55;;;2.33;;
27505;SDS011;14939;43.596;1.320;2022-09-17T07:06:03;7.35;;;2.80;;
27505;SDS011;14939;43.596;1.320;2022-09-17T07:08:33;7.15;;;2.92;;
27505;SDS011;14939;43.596;1.320;2022-09-17T07:10:59;4.80;;;2.28;;
27505;SDS011;14939;43.596;1.320;2022-09-17T07:13:25;10.93;;;3.00;;
27505;SDS011;14939;43.596;1.320;2022-09-17T07:15:55;6.07;;;2.60;;
27505;SDS011;14939;43.596;1.320;2022-09-17T07:18:25;5.22;;;2.42;;
27505;SDS011;14939;43.596;1.320;2022-09-17T07:20:52;6.00;;;2.72;;
27505;SDS011;14939;43.596;1.320;2022-09-17T07:23:18;7.22;;;2.60;;
27505;SDS011;14939;43.596;1.320;2022-09-17T07:25:49;8.43;;;2.60;;
27505;SDS011;14939;43.596;1.320;2022-09-17T07:28:19;6.60;;;2.25;;
27505;SDS011;14939;43.596;1.320;2022-09-17T07:30:45;6.25;;;2.25;;
27505;SDS011;14939;43.596;1.320;2022-09-17T07:33:10;5.57;;;2.60;;
27505;SDS011;14939;43.596;1.320;2022-09-17T07:35:36;6.43;;;3.03;;
27505;SDS011;14939;43.596;1.320;2022-09-17T07:38:02;5.20;;;2.63;;
27505;SDS011;14939;43.596;1.320;2022-09-17T07:40:27;4.65;;;2.67;;
27505;SDS011;14939;43.596;1.320;2022-09-17T07:42:55;5.97;;;2.70;;
27505;SDS011;14939;43.596;1.320;2022-09-17T07:45:22;5.82;;;2.70;;
27505;SDS011;14939;43.596;1.320;2022-09-17T07:47:48;5.95;;;2.70;;
27505;SDS011;14939;43.596;1.320;2022-09-17T07:50:14;6.22;;;2.25;;
27505;SDS011;14939;43.596;1.320;2022-09-17T07:52:46;7.10;;;2.60;;
27505;SDS011;14939;43.596;1.320;2022-09-17T07:55:12;5.20;;;2.60;;
27505;SDS011;14939;43.596;1.320;2022-09-17T07:57:39;7.22;;;2.67;;
27505;SDS011;14939;43.596;1.320;2022-09-17T08:00:05;5.82;;;2.65;;
27505;SDS011;14939;43.596;1.320;2022-09-17T08:02:31;4.90;;;2.33;;
27505;SDS011;14939;43.596;1.320;2022-09-17T08:04:57;6.78;;;2.58;;
27505;SDS011;14939;43.596;1.320;2022-09-17T08:07:23;8.98;;;2.55;;
27505;SDS011;14939;43.596;1.320;2022-09-17T08:09:49;4.75;;;2.20;;
27505;SDS011;14939;43.596;1.320;2022-09-17T08:12:14;8.13;;;2.60;;
27505;SDS011;14939;43.596;1.320;2022-09-17T08:14:42;5.43;;;2.53;;
27505;SDS011;14939;43.596;1.320;2022-09-17T08:17:08;7.25;;;2.67;;
27505;SDS011;14939;43.596;1.320;2022-09-17T08:19:34;6.28;;;2.65;;
27505;SDS011;14939;43.596;1.320;2022-09-17T08:21:59;6.88;;;2.47;;
27505;SDS011;14939;43.596;1.320;2022-09-17T08:24:25;6.78;;;2.45;;
27505;SDS011;14939;43.596;1.320;2022-09-17T08:26:51;5.85;;;2.15;;
27505;SDS011;14939;43.596;1.320;2022-09-17T08:29:17;8.32;;;2.72;;
27505;SDS011;14939;43.596;1.320;2022-09-17T08:31:43;6.35;;;2.40;;
27505;SDS011;14939;43.596;1.320;2022-09-17T08:34:09;4.65;;;2.10;;
27505;SDS011;14939;43.596;1.320;2022-09-17T08:36:35;6.53;;;2.72;;
27505;SDS011;14939;43.596;1.320;2022-09-17T08:39:01;5.70;;;2.22;;
27505;SDS011;14939;43.596;1.320;2022-09-17T08:44:17;4.57;;;2.00;;
27505;SDS011;14939;43.596;1.320;2022-09-17T08:47:07;4.82;;;2.17;;
27505;SDS011;14939;43.596;1.320;2022-09-17T09:00:39;4.85;;;1.70;;
27505;SDS011;14939;43.596;1.320;2022-09-17T09:06:09;6.38;;;2.65;;
27505;SDS011;14939;43.596;1.320;2022-09-17T09:08:43;5.93;;;1.80;;
27505;SDS011;14939;43.596;1.320;2022-09-17T09:11:22;5.93;;;2.17;;
27505;SDS011;14939;43.596;1.320;2022-09-17T09:13:54;5.15;;;1.80;;
27505;SDS011;14939;43.596;1.320;2022-09-17T09:16:36;4.82;;;2.03;;
27505;SDS011;14939;43.596;1.320;2022-09-17T09:27:37;4.70;;;1.75;;
27505;SDS011;14939;43.596;1.320;2022-09-17T09:30:09;7.70;;;2.28;;
27505;SDS011;14939;43.596;1.320;2022-09-17T09:35:40;5.82;;;1.98;;
27505;SDS011;14939;43.596;1.320;2022-09-17T09:38:06;3.45;;;1.55;;
27505;SDS011;14939;43.596;1.320;2022-09-17T09:40:43;3.70;;;1.50;;
27505;SDS011;14939;43.596;1.320;2022-09-17T09:57:14;10.90;;;4.78;;
27505;SDS011;14939;43.596;1.320;2022-09-17T09:59:44;3.53;;;1.50;;
27505;SDS011;14939;43.596;1.320;2022-09-17T10:02:09;3.17;;;1.40;;
27505;SDS011;14939;43.596;1.320;2022-09-17T10:04:35;2.85;;;1.50;;
27505;SDS011;14939;43.596;1.320;2022-09-17T10:07:10;4.95;;;1.70;;
27505;SDS011;14939;43.596;1.320;2022-09-17T10:09:37;5.85;;;2.60;;
27505;SDS011;14939;43.596;1.320;2022-09-17T10:14:38;3.65;;;1.60;;
27505;SDS011;14939;43.596;1.320;2022-09-17T10:17:14;3.83;;;1.70;;
27505;SDS011;14939;43.596;1.320;2022-09-17T10:19:45;3.95;;;1.77;;
27505;SDS011;14939;43.596;1.320;2022-09-17T10:24:50;6.82;;;1.65;;
27505;SDS011;14939;43.596;1.320;2022-09-17T10:27:18;3.53;;;1.60;;
27505;SDS011;14939;43.596;1.320;2022-09-17T10:29:47;3.63;;;1.63;;
27505;SDS011;14939;43.596;1.320;2022-09-17T10:32:15;4.90;;;1.65;;
27505;SDS011;14939;43.596;1.320;2022-09-17T10:34:59;4.40;;;1.80;;
27505;SDS011;14939;43.596;1.320;2022-09-17T10:37:49;3.97;;;1.90;;
27505;SDS011;14939;43.596;1.320;2022-09-17T10:42:42;3.58;;;1.40;;
27505;SDS011;14939;43.596;1.320;2022-09-17T10:45:45;3.88;;;1.88;;
27505;SDS011;14939;43.596;1.320;2022-09-17T10:48:04;7.70;;;2.47;;
27505;SDS011;14939;43.596;1.320;2022-09-17T10:50:46;4.60;;;1.70;;
27505;SDS011;14939;43.596;1.320;2022-09-17T10:53:20;3.03;;;1.48;;
27505;SDS011;14939;43.596;1.320;2022-09-17T10:56:00;3.92;;;1.40;;
27505;SDS011;14939;43.596;1.320;2022-09-17T10:58:53;5.05;;;1.50;;
27505;SDS011;14939;43.596;1.320;2022-09-17T11:01:30;4.95;;;1.40;;
27505;SDS011;14939;43.596;1.320;2022-09-17T11:06:55;2.37;;;1.43;;
27505;SDS011;14939;43.596;1.320;2022-09-17T11:09:34;2.95;;;1.20;;
27505;SDS011;14939;43.596;1.320;2022-09-17T11:26:27;6.47;;;1.63;;
27505;SDS011;14939;43.596;1.320;2022-09-17T11:28:59;2.80;;;1.33;;
27505;SDS011;14939;43.596;1.320;2022-09-17T11:31:36;5.88;;;1.60;;
27505;SDS011;14939;43.596;1.320;2022-09-17T11:42:21;5.65;;;1.30;;
27505;SDS011;14939;43.596;1.320;2022-09-17T11:45:09;3.40;;;1.17;;
27505;SDS011;14939;43.596;1.320;2022-09-17T11:47:38;3.47;;;1.30;;
27505;SDS011;14939;43.596;1.320;2022-09-17T11:50:18;2.08;;;1.20;;
27505;SDS011;14939;43.596;1.320;2022-09-17T11:55:34;3.50;;;1.30;;
27505;SDS011;14939;43.596;1.320;2022-09-17T12:00:49;2.55;;;1.20;;
27505;SDS011;14939;43.596;1.320;2022-09-17T12:03:27;3.80;;;1.02;;
27505;SDS011;14939;43.596;1.320;2022-09-17T12:06:07;4.32;;;1.05;;
27505;SDS011;14939;43.596;1.320;2022-09-17T12:08:52;4.20;;;1.10;;
27505;SDS011;14939;43.596;1.320;2022-09-17T12:11:25;3.25;;;1.30;;
27505;SDS011;14939;43.596;1.320;2022-09-17T12:14:05;4.38;;;1.20;;
27505;SDS011;14939;43.596;1.320;2022-09-17T12:16:45;1.70;;;1.05;;
27505;SDS011;14939;43.596;1.320;2022-09-17T12:19:31;4.10;;;1.00;;
27505;SDS011;14939;43.596;1.320;2022-09-17T12:24:50;1.55;;;1.02;;
27505;SDS011;14939;43.596;1.320;2022-09-17T12:40:20;2.13;;;1.10;;
27505;SDS011;14939;43.596;1.320;2022-09-17T12:43:13;2.97;;;1.13;;
27505;SDS011;14939;43.596;1.320;2022-09-17T12:51:53;2.95;;;0.90;;
27505;SDS011;14939;43.596;1.320;2022-09-17T12:57:16;2.50;;;0.82;;
27505;SDS011;14939;43.596;1.320;2022-09-17T13:00:02;2.50;;;0.90;;
27505;SDS011;14939;43.596;1.320;2022-09-17T13:02:41;1.88;;;0.95;;
27505;SDS011;14939;43.596;1.320;2022-09-17T13:24:25;2.38;;;1.00;;
27505;SDS011;14939;43.596;1.320;2022-09-17T13:26:54;2.28;;;0.77;;
27505;SDS011;14939;43.596;1.320;2022-09-17T13:35:10;1.00;;;0.80;;
27505;SDS011;14939;43.596;1.320;2022-09-17T13:37:43;2.38;;;0.80;;
27505;SDS011;14939;43.596;1.320;2022-09-17T13:42:53;3.28;;;1.10;;
27505;SDS011;14939;43.596;1.320;2022-09-17T13:45:28;3.15;;;0.82;;
27505;SDS011;14939;43.596;1.320;2022-09-17T13:48:03;4.57;;;1.00;;
27505;SDS011;14939;43.596;1.320;2022-09-17T13:50:43;1.92;;;0.68;;
27505;SDS011;14939;43.596;1.320;2022-09-17T13:55:46;2.97;;;0.80;;
27505;SDS011;14939;43.596;1.320;2022-09-17T14:11:56;2.28;;;0.90;;
27505;SDS011;14939;43.596;1.320;2022-09-17T14:21:41;1.67;;;0.82;;
27505;SDS011;14939;43.596;1.320;2022-09-17T14:24:38;2.15;;;0.65;;
27505;SDS011;14939;43.596;1.320;2022-09-17T14:27:20;3.85;;;0.80;;
27505;SDS011;14939;43.596;1.320;2022-09-17T14:35:22;1.15;;;0.80;;
27505;SDS011;14939;43.596;1.320;2022-09-17T14:40:26;1.48;;;0.73;;
27505;SDS011;14939;43.596;1.320;2022-09-17T14:42:53;3.00;;;0.90;;
27505;SDS011;14939;43.596;1.320;2022-09-17T14:45:25;2.63;;;0.70;;
27505;SDS011;14939;43.596;1.320;2022-09-17T14:50:49;1.35;;;0.70;;
27505;SDS011;14939;43.596;1.320;2022-09-17T14:53:16;1.63;;;0.80;;
27505;SDS011;14939;43.596;1.320;2022-09-17T14:55:47;1.48;;;0.77;;
27505;SDS011;14939;43.596;1.320;2022-09-17T14:58:48;2.05;;;0.70;;
27505;SDS011;14939;43.596;1.320;2022-09-17T15:01:27;2.25;;;0.80;;
27505;SDS011;14939;43.596;1.320;2022-09-17T15:06:38;1.05;;;0.60;;
27505;SDS011;14939;43.596;1.320;2022-09-17T15:09:04;2.08;;;0.90;;
27505;SDS011;14939;43.596;1.320;2022-09-17T15:11:32;2.38;;;0.73;;
27505;SDS011;14939;43.596;1.320;2022-09-17T15:14:05;2.35;;;0.80;;
27505;SDS011;14939;43.596;1.320;2022-09-17T15:16:36;1.85;;;1.00;;
27505;SDS011;14939;43.596;1.320;2022-09-17T15:19:02;1.88;;;0.70;;
27505;SDS011;14939;43.596;1.320;2022-09-17T15:21:38;2.85;;;0.68;;
27505;SDS011;14939;43.596;1.320;2022-09-17T15:24:14;0.70;;;0.68;;
27505;SDS011;14939;43.596;1.320;2022-09-17T15:26:43;2.42;;;0.90;;
27505;SDS011;14939;43.596;1.320;2022-09-17T15:29:13;3.58;;;0.88;;
27505;SDS011;14939;43.596;1.320;2022-09-17T15:31:39;0.90;;;0.57;;
27505;SDS011;14939;43.596;1.320;2022-09-17T15:34:05;1.67;;;0.60;;
27505;SDS011;14939;43.596;1.320;2022-09-17T15:36:36;2.00;;;0.80;;
27505;SDS011;14939;43.596;1.320;2022-09-17T15:39:04;1.75;;;0.65;;
27505;SDS011;14939;43.596;1.320;2022-09-17T15:41:55;1.63;;;0.70;;
27505;SDS011;14939;43.596;1.320;2022-09-17T15:44:22;2.55;;;0.65;;
27505;SDS011;14939;43.596;1.320;2022-09-17T15:46:50;2.20;;;0.60;;
27505;SDS011;14939;43.596;1.320;2022-09-17T15:49:27;2.40;;;0.73;;
27505;SDS011;14939;43.596;1.320;2022-09-17T15:51:54;1.13;;;0.60;;
27505;SDS011;14939;43.596;1.320;2022-09-17T15:54:40;1.38;;;0.70;;
27505;SDS011;14939;43.596;1.320;2022-09-17T15:57:10;1.60;;;0.90;;
27505;SDS011;14939;43.596;1.320;2022-09-17T15:59:39;3.03;;;0.82;;
27505;SDS011;14939;43.596;1.320;2022-09-17T16:02:08;2.90;;;0.70;;
27505;SDS011;14939;43.596;1.320;2022-09-17T16:04:49;2.25;;;0.70;;
27505;SDS011;14939;43.596;1.320;2022-09-17T16:07:38;0.80;;;0.60;;
27505;SDS011;14939;43.596;1.320;2022-09-17T16:10:04;0.95;;;0.60;;
27505;SDS011;14939;43.596;1.320;2022-09-17T16:12:31;2.70;;;0.80;;
27505;SDS011;14939;43.596;1.320;2022-09-17T16:14:57;2.20;;;0.60;;
27505;SDS011;14939;43.596;1.320;2022-09-17T16:17:28;1.98;;;0.60;;
27505;SDS011;14939;43.596;1.320;2022-09-17T16:22:30;2.35;;;0.70;;
27505;SDS011;14939;43.596;1.320;2022-09-17T16:24:55;2.38;;;0.75;;
27505;SDS011;14939;43.596;1.320;2022-09-17T16:27:23;2.03;;;0.60;;
27505;SDS011;14939;43.596;1.320;2022-09-17T16:29:58;1.48;;;0.63;;
27505;SDS011;14939;43.596;1.320;2022-09-17T16:32:30;2.85;;;0.80;;
27505;SDS011;14939;43.596;1.320;2022-09-17T16:34:55;0.88;;;0.50;;
27505;SDS011;14939;43.596;1.320;2022-09-17T16:37:21;1.73;;;0.40;;
27505;SDS011;14939;43.596;1.320;2022-09-17T16:39:47;0.82;;;0.40;;
27505;SDS011;14939;43.596;1.320;2022-09-17T16:42:13;1.85;;;0.60;;
27505;SDS011;14939;43.596;1.320;2022-09-17T16:44:39;1.52;;;0.60;;
27505;SDS011;14939;43.596;1.320;2022-09-17T16:47:04;0.70;;;0.50;;
27505;SDS011;14939;43.596;1.320;2022-09-17T16:49:30;3.45;;;0.70;;
27505;SDS011;14939;43.596;1.320;2022-09-17T16:51:56;1.48;;;0.50;;
27505;SDS011;14939;43.596;1.320;2022-09-17T16:54:21;1.05;;;0.60;;
27505;SDS011;14939;43.596;1.320;2022-09-17T16:56:47;2.92;;;0.60;;
27505;SDS011;14939;43.596;1.320;2022-09-17T16:59:13;0.43;;;0.43;;
27505;SDS011;14939;43.596;1.320;2022-09-17T17:01:38;1.23;;;0.45;;
27505;SDS011;14939;43.596;1.320;2022-09-17T17:04:04;1.83;;;0.70;;
27505;SDS011;14939;43.596;1.320;2022-09-17T17:06:30;1.30;;;0.60;;
27505;SDS011;14939;43.596;1.320;2022-09-17T17:08:56;0.50;;;0.50;;
27505;SDS011;14939;43.596;1.320;2022-09-17T17:11:25;1.10;;;0.70;;
27505;SDS011;14939;43.596;1.320;2022-09-17T17:13:52;2.55;;;0.70;;
27505;SDS011;14939;43.596;1.320;2022-09-17T17:16:20;1.95;;;0.57;;
27505;SDS011;14939;43.596;1.320;2022-09-17T17:18:47;0.90;;;0.40;;
27505;SDS011;14939;43.596;1.320;2022-09-17T17:21:15;0.68;;;0.47;;
27505;SDS011;14939;43.596;1.320;2022-09-17T17:23:41;4.32;;;0.63;;
27505;SDS011;14939;43.596;1.320;2022-09-17T17:26:11;1.02;;;0.50;;
27505;SDS011;14939;43.596;1.320;2022-09-17T17:28:38;0.70;;;0.70;;
27505;SDS011;14939;43.596;1.320;2022-09-17T17:31:04;1.13;;;0.50;;
27505;SDS011;14939;43.596;1.320;2022-09-17T17:33:30;2.42;;;0.60;;
27505;SDS011;14939;43.596;1.320;2022-09-17T17:35:59;1.42;;;0.70;;
27505;SDS011;14939;43.596;1.320;2022-09-17T17:38:29;2.25;;;0.65;;
27505;SDS011;14939;43.596;1.320;2022-09-17T17:41:01;2.15;;;0.77;;
27505;SDS011;14939;43.596;1.320;2022-09-17T17:43:27;1.17;;;0.70;;
27505;SDS011;14939;43.596;1.320;2022-09-17T17:45:52;0.93;;;0.70;;
27505;SDS011;14939;43.596;1.320;2022-09-17T17:48:18;1.92;;;0.85;;
27505;SDS011;14939;43.596;1.320;2022-09-17T17:50:44;3.33;;;0.90;;
27505;SDS011;14939;43.596;1.320;2022-09-17T17:53:09;3.58;;;1.10;;
27505;SDS011;14939;43.596;1.320;2022-09-17T17:55:35;3.00;;;1.13;;
27505;SDS011;14939;43.596;1.320;2022-09-17T17:58:01;2.22;;;1.02;;
27505;SDS011;14939;43.596;1.320;2022-09-17T18:00:27;4.85;;;1.30;;
27505;SDS011;14939;43.596;1.320;2022-09-17T18:02:53;4.53;;;1.13;;
27505;SDS011;14939;43.596;1.320;2022-09-17T18:05:18;2.33;;;0.98;;
27505;SDS011;14939;43.596;1.320;2022-09-17T18:07:45;1.70;;;1.00;;
27505;SDS011;14939;43.596;1.320;2022-09-17T18:10:10;2.97;;;1.25;;
27505;SDS011;14939;43.596;1.320;2022-09-17T18:12:37;3.10;;;1.30;;
27505;SDS011;14939;43.596;1.320;2022-09-17T18:15:03;2.40;;;1.33;;
27505;SDS011;14939;43.596;1.320;2022-09-17T18:17:30;1.92;;;1.40;;
27505;SDS011;14939;43.596;1.320;2022-09-17T18:19:56;4.75;;;1.20;;
27505;SDS011;14939;43.596;1.320;2022-09-17T18:22:22;3.95;;;1.50;;
27505;SDS011;14939;43.596;1.320;2022-09-17T18:24:48;2.50;;;1.42;;
27505;SDS011;14939;43.596;1.320;2022-09-17T18:27:13;2.40;;;1.38;;
27505;SDS011;14939;43.596;1.320;2022-09-17T18:29:39;5.57;;;1.80;;
27505;SDS011;14939;43.596;1.320;2022-09-17T18:32:05;3.35;;;1.17;;
27505;SDS011;14939;43.596;1.320;2022-09-17T18:34:30;3.75;;;1.58;;
27505;SDS011;14939;43.596;1.320;2022-09-17T18:36:56;2.38;;;1.13;;
27505;SDS011;14939;43.596;1.320;2022-09-17T18:39:22;3.63;;;1.50;;
27505;SDS011;14939;43.596;1.320;2022-09-17T18:41:48;1.92;;;1.20;;